Terminal Aerodrome Forecast
Issued by NWS

Home | Current Version | Previous Version | Text Only | Print | Product List | Glossary On
Versions: 1 2 3 4 5 6 7 8 9 10 11 12 13 14 15
114
FTUS44 KTSA 210907 AAA
TAFBVO
TAF AMD
KBVO 210907Z 2109/2206 18008KT P6SM SKC
      TEMPO 2110/2114 BKN015
     FM211400 18011KT P6SM BKN015
     FM211800 19014G22KT P6SM BKN025
     FM220300 22011KT P6SM FEW120=

USA.gov is the U.S. government's official web portal to all federal, state and local government web resources and services.